Terminal Aerodrome Forecast
Issued by NWS

Home | Current Version | Previous Version | Text Only | Print | Product List | Glossary Off
Versions: 1 2 3 4 5 6 7 8 9 10 11 12 13 14 15 16 17

000
FTUS42 KMHX 032328
TAFISO
TAF
KISO 032328Z 0400/0424 19007KT P6SM SCT050
      TEMPO 0401/0403 VRB30KT 3SM TSRA BKN030CB
     FM040300 20004KT P6SM VCSH SCT025 BKN050
     FM040800 VRB03KT 3SM BR BKN007
     FM041200 29004KT P6SM OVC025
     FM041600 28007KT P6SM VCSH BKN035
      AMD LTD TO CLD VIS AND WIND=

USA.gov is the U.S. government's official web portal to all federal, state and local government web resources and services.